Time;durP1;ratioP1;P1;durP2;ratioP2;P2;SDS_P1;SDS_P2;PMS_P1;PMS_P2;Temp;Humidity;BMP_temperature;BMP_pressure;BME280_temperature;BME280_humidity;BME280_pressure;Samples;Min_cycle;Max_cycle;Signal;HPM_P1;HPM_P2
2022/08/28 00:00:51;;;;;;;9.27;8.00;;;19.00;99.90;;;;;;5069678;28;20192;-64
2022/08/28 00:03:17;;;;;;;10.43;7.87;;;18.90;99.90;;;;;;5061285;28;20210;-64
2022/08/28 00:05:44;;;;;;;9.13;6.70;;;18.90;99.90;;;;;;5068037;28;20612;-64
2022/08/28 00:08:11;;;;;;;15.07;7.00;;;18.80;99.90;;;;;;5058671;28;20235;-64
2022/08/28 00:10:38;;;;;;;10.53;7.10;;;18.80;99.90;;;;;;5069455;28;20287;-64
2022/08/28 00:13:06;;;;;;;12.50;6.97;;;18.80;99.90;;;;;;5047922;28;20206;-63
2022/08/28 00:15:36;;;;;;;13.73;5.70;;;18.80;99.90;;;;;;5068988;28;20189;-62
2022/08/28 00:18:02;;;;;;;5.80;5.30;;;18.80;99.90;;;;;;5047122;28;20283;-62
2022/08/28 00:20:29;;;;;;;9.37;6.73;;;18.80;99.90;;;;;;5068801;28;20202;-63
2022/08/28 00:22:55;;;;;;;8.83;5.43;;;18.70;99.90;;;;;;5047986;28;20198;-69
2022/08/28 00:25:23;;;;;;;7.43;5.13;;;18.80;99.90;;;;;;5068263;28;20199;-63
2022/08/28 00:27:56;;;;;;;10.77;6.00;;;18.70;99.90;;;;;;5047592;28;20195;-63
2022/08/28 00:30:35;;;;;;;10.60;5.53;;;18.70;99.90;;;;;;5049071;28;20186;-62
2022/08/28 00:33:04;;;;;;;10.57;5.47;;;18.70;99.90;;;;;;5057138;28;20215;-63
2022/08/28 00:35:29;;;;;;;8.83;4.93;;;18.80;99.90;;;;;;5049218;28;20200;-63
2022/08/28 00:37:56;;;;;;;5.10;4.60;;;18.70;99.90;;;;;;5066189;28;20200;-62
2022/08/28 00:40:23;;;;;;;8.90;4.60;;;18.70;99.90;;;;;;5068622;28;20248;-63
2022/08/28 00:42:49;;;;;;;8.60;5.07;;;18.70;99.90;;;;;;5047420;28;20409;-62
2022/08/28 00:45:16;;;;;;;8.07;5.10;;;18.70;99.90;;;;;;5068003;28;20664;-63
2022/08/28 00:47:42;;;;;;;7.80;5.43;;;18.70;99.90;;;;;;5047166;28;20202;-63
2022/08/28 00:50:10;;;;;;;10.37;6.10;;;18.60;99.90;;;;;;5059287;28;20736;-63
2022/08/28 00:52:36;;;;;;;12.10;5.77;;;18.70;99.90;;;;;;5047023;28;20796;-62
2022/08/28 00:55:07;;;;;;;9.40;5.07;;;18.60;99.90;;;;;;5048610;28;20187;-62
2022/08/28 00:57:40;;;;;;;7.17;5.40;;;18.60;99.90;;;;;;5052357;28;20560;-62
2022/08/28 01:00:11;;;;;;;10.77;5.67;;;18.60;99.90;;;;;;5068606;28;20210;-63
2022/08/28 01:02:36;;;;;;;6.80;5.37;;;18.60;99.90;;;;;;5046639;28;20226;-61
2022/08/28 01:05:02;;;;;;;5.73;5.27;;;18.60;99.90;;;;;;5048601;28;20173;-61
2022/08/28 01:07:28;;;;;;;9.67;5.63;;;18.60;99.90;;;;;;5065615;28;20195;-61
2022/08/28 01:09:54;;;;;;;8.47;6.13;;;18.60;99.90;;;;;;5067231;28;20183;-61
2022/08/28 01:12:24;;;;;;;11.60;7.00;;;18.60;99.90;;;;;;5066158;28;20219;-62
2022/08/28 01:14:53;;;;;;;9.57;7.57;;;18.60;99.90;;;;;;5068473;28;20730;-62
2022/08/28 01:17:22;;;;;;;7.20;6.50;;;18.70;99.90;;;;;;5066145;28;20201;-62
2022/08/28 01:19:59;;;;;;;13.47;7.07;;;18.60;99.90;;;;;;5068020;28;20198;-62
2022/08/28 01:22:43;;;;;;;12.30;8.03;;;18.70;99.90;;;;;;5049801;28;20196;-61
2022/08/28 01:25:13;;;;;;;10.23;7.87;;;18.70;99.90;;;;;;5068262;28;20178;-62
2022/08/28 01:27:40;;;;;;;11.63;8.50;;;18.70;99.90;;;;;;5066010;28;20192;-61
2022/08/28 01:30:11;;;;;;;15.30;10.30;;;18.60;99.90;;;;;;5068187;28;20182;-62
2022/08/28 01:32:40;;;;;;;10.80;9.30;;;18.60;99.90;;;;;;5051236;28;20217;-62
2022/08/28 01:35:10;;;;;;;16.57;11.60;;;18.60;99.90;;;;;;5068217;28;20649;-63
2022/08/28 01:37:36;;;;;;;11.53;10.43;;;18.60;99.90;;;;;;5046143;28;20206;-62
2022/08/28 01:40:05;;;;;;;15.33;11.30;;;18.70;99.90;;;;;;5048350;28;20215;-63
2022/08/28 01:42:37;;;;;;;13.33;10.90;;;18.70;99.90;;;;;;5065794;28;20199;-62
2022/08/28 01:45:03;;;;;;;16.83;10.93;;;18.60;99.90;;;;;;5068083;28;20659;-63
2022/08/28 01:47:28;;;;;;;12.53;10.93;;;18.60;99.90;;;;;;5065824;28;20224;-62
2022/08/28 01:49:54;;;;;;;14.23;10.50;;;18.60;99.90;;;;;;5067779;28;20235;-61
2022/08/28 01:52:19;;;;;;;16.63;11.77;;;18.60;99.90;;;;;;5046549;28;20183;-62
2022/08/28 01:54:45;;;;;;;19.50;12.53;;;18.60;99.90;;;;;;5048043;28;20177;-62
2022/08/28 01:57:10;;;;;;;16.10;12.73;;;18.60;99.90;;;;;;5064919;28;20214;-62
2022/08/28 01:59:36;;;;;;;13.43;11.80;;;18.50;99.90;;;;;;5067975;28;20214;-62
2022/08/28 02:02:02;;;;;;;18.20;12.40;;;18.50;99.90;;;;;;5070904;28;20211;-63
2022/08/28 02:04:28;;;;;;;14.57;11.83;;;18.50;99.90;;;;;;5069902;28;20699;-62
2022/08/28 02:06:54;;;;;;;14.50;12.13;;;18.50;99.90;;;;;;5071817;28;20183;-63
2022/08/28 02:09:20;;;;;;;17.37;12.37;;;18.50;99.90;;;;;;5068684;28;20206;-63
2022/08/28 02:11:45;;;;;;;15.07;11.37;;;18.50;99.90;;;;;;5071782;28;20186;-61
2022/08/28 02:14:11;;;;;;;16.20;13.00;;;18.50;99.90;;;;;;5067249;28;20247;-62
2022/08/28 02:16:36;;;;;;;15.03;13.43;;;18.40;99.90;;;;;;5071589;28;20739;-61
2022/08/28 02:19:02;;;;;;;14.57;12.63;;;18.40;99.90;;;;;;5065577;28;20245;-62
2022/08/28 02:21:28;;;;;;;18.17;13.73;;;18.40;99.90;;;;;;5067682;28;20285;-62
2022/08/28 02:23:53;;;;;;;14.17;12.60;;;18.30;99.90;;;;;;5062563;28;20282;-61
2022/08/28 02:26:20;;;;;;;13.27;11.97;;;18.40;99.90;;;;;;5052070;28;20657;-62
2022/08/28 02:28:47;;;;;;;15.60;12.97;;;18.30;99.90;;;;;;5056241;28;20241;-61
2022/08/28 02:31:12;;;;;;;15.13;12.80;;;18.30;99.90;;;;;;5071084;28;20613;-63
2022/08/28 02:33:40;;;;;;;13.47;11.93;;;18.20;99.90;;;;;;5062178;28;20279;-65
2022/08/28 02:36:07;;;;;;;15.43;12.27;;;18.20;99.90;;;;;;5071265;28;20190;-62
2022/08/28 02:38:33;;;;;;;19.27;11.43;;;18.10;99.90;;;;;;5050000;28;20230;-62
2022/08/28 02:40:59;;;;;;;12.13;10.17;;;18.10;99.90;;;;;;5070907;28;20190;-62
2022/08/28 02:43:24;;;;;;;14.13;8.77;;;18.00;99.90;;;;;;5050094;28;20266;-62
2022/08/28 02:45:50;;;;;;;15.00;10.20;;;18.00;99.90;;;;;;5070965;28;20179;-62
2022/08/28 02:48:15;;;;;;;14.77;9.63;;;18.00;99.90;;;;;;5050155;28;20183;-62
2022/08/28 02:50:40;;;;;;;12.60;9.97;;;18.00;99.90;;;;;;5070668;28;20317;-62
2022/08/28 02:53:06;;;;;;;13.40;8.83;;;17.90;99.90;;;;;;5050144;28;20198;-61
2022/08/28 02:55:32;;;;;;;11.83;8.47;;;17.80;99.90;;;;;;5051316;28;20183;-62
2022/08/28 02:57:58;;;;;;;10.93;8.77;;;17.80;99.90;;;;;;5068662;28;20197;-62
2022/08/28 03:00:25;;;;;;;13.77;8.33;;;17.80;99.90;;;;;;5071110;28;20251;-61
2022/08/28 03:02:51;;;;;;;13.63;7.83;;;17.80;99.90;;;;;;5069276;28;20275;-62
2022/08/28 03:05:22;;;;;;;13.47;7.83;;;17.70;99.90;;;;;;5071171;28;20170;-62
2022/08/28 03:07:49;;;;;;;9.30;6.50;;;17.70;99.90;;;;;;5053304;28;20190;-62
2022/08/28 03:10:15;;;;;;;11.50;8.23;;;17.70;99.90;;;;;;5071130;28;20179;-63
2022/08/28 03:12:41;;;;;;;13.73;6.47;;;17.60;99.90;;;;;;5049458;28;20186;-63
2022/08/28 03:15:07;;;;;;;10.90;7.63;;;17.70;99.90;;;;;;5051090;28;20274;-63
2022/08/28 03:17:34;;;;;;;13.90;7.23;;;17.60;99.90;;;;;;5068373;28;20190;-63
2022/08/28 03:19:59;;;;;;;10.73;7.73;;;17.60;99.90;;;;;;5070894;28;20288;-63
2022/08/28 03:25:11;;;;;;;9.57;6.90;;;17.60;99.90;;;;;;5070908;28;20184;-63
2022/08/28 03:27:37;;;;;;;6.83;5.80;;;17.50;99.90;;;;;;5068719;28;20641;-63
2022/08/28 03:30:06;;;;;;;9.73;6.87;;;17.50;99.90;;;;;;5070862;28;20175;-62
2022/08/28 03:32:32;;;;;;;10.70;5.80;;;17.50;99.90;;;;;;5068484;28;20228;-63
2022/08/28 03:34:58;;;;;;;8.17;5.90;;;17.50;99.90;;;;;;5071040;28;20186;-63
2022/08/28 03:37:24;;;;;;;11.27;6.23;;;17.50;99.90;;;;;;5070253;28;20187;-62
2022/08/28 03:39:49;;;;;;;14.47;6.30;;;17.40;99.90;;;;;;5068735;28;20206;-62
2022/08/28 03:42:15;;;;;;;16.40;6.53;;;17.40;99.90;;;;;;5070417;28;20193;-62
2022/08/28 03:44:40;;;;;;;9.43;5.63;;;17.40;99.90;;;;;;5067568;28;20183;-62
2022/08/28 03:47:05;;;;;;;8.70;5.47;;;17.50;99.90;;;;;;5070429;28;20183;-61
2022/08/28 03:49:31;;;;;;;12.60;5.27;;;17.50;99.90;;;;;;5065796;28;20280;-61
2022/08/28 03:51:57;;;;;;;13.93;5.67;;;17.50;99.90;;;;;;5070452;28;20265;-63
2022/08/28 03:54:23;;;;;;;11.10;5.87;;;17.50;99.90;;;;;;5064562;28;20355;-63
2022/08/28 03:56:50;;;;;;;12.53;5.37;;;17.40;99.90;;;;;;5070275;28;20269;-61
2022/08/28 03:59:16;;;;;;;8.03;4.53;;;17.40;99.90;;;;;;5063369;28;20214;-62
2022/08/28 04:01:42;;;;;;;11.80;5.37;;;17.30;99.90;;;;;;5068546;28;20772;-61
2022/08/28 04:04:07;;;;;;;10.73;5.33;;;17.30;99.90;;;;;;5062348;28;20248;-62
2022/08/28 04:06:33;;;;;;;12.70;5.13;;;17.30;99.90;;;;;;5069833;28;20216;-62
2022/08/28 04:08:58;;;;;;;13.37;5.17;;;17.20;99.90;;;;;;5060917;28;20974;-62
2022/08/28 04:11:24;;;;;;;12.40;5.30;;;17.30;99.90;;;;;;5069735;28;20729;-62
2022/08/28 04:13:49;;;;;;;14.27;4.87;;;17.30;99.90;;;;;;5048761;28;20203;-62
2022/08/28 04:16:17;;;;;;;10.67;5.40;;;17.20;99.90;;;;;;5069026;28;20206;-62
2022/08/28 04:18:45;;;;;;;11.07;4.17;;;17.20;99.90;;;;;;5047683;28;20214;-62
2022/08/28 04:21:17;;;;;;;15.27;6.00;;;17.20;99.90;;;;;;5069286;28;20221;-64
2022/08/28 04:23:44;;;;;;;11.80;4.87;;;17.20;99.90;;;;;;5056799;28;20200;-63
2022/08/28 04:26:15;;;;;;;11.93;4.73;;;17.10;99.90;;;;;;5050024;28;20191;-63
2022/08/28 04:28:41;;;;;;;7.83;4.43;;;17.10;99.90;;;;;;5056645;28;20711;-63
2022/08/28 04:31:07;;;;;;;10.17;5.93;;;17.00;99.90;;;;;;5050110;28;20187;-63
2022/08/28 04:33:33;;;;;;;13.57;4.57;;;17.00;99.90;;;;;;5066592;28;20293;-62
2022/08/28 04:36:05;;;;;;;13.73;4.57;;;17.00;99.90;;;;;;5069395;28;20197;-62
2022/08/28 04:38:30;;;;;;;10.70;3.93;;;17.00;99.90;;;;;;5047569;28;20554;-63
2022/08/28 04:40:56;;;;;;;13.87;5.13;;;17.00;99.90;;;;;;5049544;28;20252;-64
2022/08/28 04:43:21;;;;;;;8.27;5.27;;;16.90;99.90;;;;;;5066304;28;20296;-63
2022/08/28 04:45:47;;;;;;;8.77;5.33;;;16.90;99.90;;;;;;5069382;28;20264;-63
2022/08/28 04:48:13;;;;;;;12.40;4.97;;;16.90;99.90;;;;;;5067213;28;20197;-63
2022/08/28 04:50:40;;;;;;;9.20;4.00;;;16.80;99.90;;;;;;5069047;28;20226;-62
2022/08/28 04:53:06;;;;;;;9.67;4.27;;;16.80;99.90;;;;;;5065492;28;20190;-63
2022/08/28 04:55:31;;;;;;;9.40;4.17;;;16.80;99.90;;;;;;5068979;28;20186;-61
2022/08/28 04:57:57;;;;;;;8.27;5.00;;;16.80;99.90;;;;;;5066746;28;20536;-62
2022/08/28 05:00:22;;;;;;;13.87;5.47;;;16.80;99.90;;;;;;5068874;28;20202;-61
2022/08/28 05:02:48;;;;;;;9.97;5.33;;;16.80;99.90;;;;;;5066746;28;20261;-62
2022/08/28 05:05:14;;;;;;;11.53;4.80;;;16.80;99.90;;;;;;5068939;28;20257;-62
2022/08/28 05:07:39;;;;;;;11.63;4.07;;;16.80;99.90;;;;;;5068546;28;20229;-62
2022/08/28 05:10:06;;;;;;;14.13;5.37;;;16.80;99.90;;;;;;5066896;28;20293;-62
2022/08/28 05:12:34;;;;;;;9.00;3.80;;;16.80;99.90;;;;;;5068776;28;20260;-61
2022/08/28 05:15:00;;;;;;;12.30;4.30;;;16.80;99.90;;;;;;5065887;28;20213;-62
2022/08/28 05:17:25;;;;;;;14.97;4.73;;;16.80;99.90;;;;;;5068413;28;20191;-64
2022/08/28 05:19:51;;;;;;;11.13;4.43;;;16.80;99.90;;;;;;5064543;28;20218;-62
2022/08/28 05:22:16;;;;;;;10.87;4.33;;;16.70;99.90;;;;;;5068566;28;20182;-62
2022/08/28 05:24:42;;;;;;;9.17;3.73;;;16.60;99.90;;;;;;5063219;28;20202;-64
2022/08/28 05:27:08;;;;;;;8.50;3.97;;;16.60;99.90;;;;;;5068468;28;20273;-64
2022/08/28 05:29:33;;;;;;;9.00;4.43;;;16.60;99.90;;;;;;5060715;28;20664;-66
2022/08/28 05:31:59;;;;;;;11.37;4.87;;;16.50;99.90;;;;;;5048807;28;20654;-64
2022/08/28 05:34:24;;;;;;;9.00;4.47;;;16.40;99.90;;;;;;5052344;28;20206;-63
2022/08/28 05:36:50;;;;;;;12.10;4.43;;;16.40;99.90;;;;;;5066998;28;20198;-63
2022/08/28 05:39:16;;;;;;;12.93;4.40;;;16.30;99.90;;;;;;5059056;28;20723;-63
2022/08/28 05:41:43;;;;;;;14.83;5.57;;;16.30;99.90;;;;;;5067934;28;20185;-64
2022/08/28 05:44:11;;;;;;;10.70;4.03;;;16.30;99.90;;;;;;5057540;28;20774;-64
2022/08/28 05:46:40;;;;;;;14.07;4.40;;;16.30;99.90;;;;;;5048459;28;20193;-64
2022/08/28 05:49:06;;;;;;;11.77;5.20;;;16.30;99.90;;;;;;5065919;28;20703;-63
2022/08/28 05:51:33;;;;;;;10.63;4.57;;;16.30;99.90;;;;;;5068265;28;20181;-64
2022/08/28 05:53:58;;;;;;;10.60;4.90;;;16.20;99.90;;;;;;5066269;28;20194;-63
2022/08/28 05:56:28;;;;;;;14.40;5.40;;;16.20;99.90;;;;;;5067973;28;20186;-63
2022/08/28 05:58:54;;;;;;;10.63;5.10;;;16.20;99.90;;;;;;5046362;28;20260;-63
2022/08/28 06:01:28;;;;;;;12.17;4.83;;;16.20;99.90;;;;;;5067519;28;20190;-63
2022/08/28 06:04:02;;;;;;;10.30;4.67;;;16.30;99.90;;;;;;5054695;28;20199;-63
2022/08/28 06:06:30;;;;;;;13.13;5.73;;;16.30;99.90;;;;;;5048195;28;20651;-64
2022/08/28 06:08:57;;;;;;;14.33;6.20;;;16.30;99.90;;;;;;5065951;28;20190;-63
2022/08/28 06:11:23;;;;;;;20.57;6.50;;;16.40;99.90;;;;;;5048402;28;20195;-63
2022/08/28 06:13:49;;;;;;;12.90;5.70;;;16.50;99.90;;;;;;5065540;28;20292;-63
2022/08/28 06:16:14;;;;;;;11.77;6.37;;;16.40;99.90;;;;;;5068241;28;20181;-61
2022/08/28 06:18:40;;;;;;;13.40;6.90;;;16.40;99.90;;;;;;5062099;28;20214;-62
2022/08/28 06:21:06;;;;;;;12.00;5.83;;;16.30;99.90;;;;;;5067970;28;20243;-63
2022/08/28 06:23:32;;;;;;;11.93;5.30;;;16.30;99.90;;;;;;5046560;28;20202;-62
2022/08/28 06:25:58;;;;;;;14.13;6.47;;;16.30;99.90;;;;;;5048164;28;20164;-62
2022/08/28 06:28:25;;;;;;;12.97;6.53;;;16.20;99.90;;;;;;5065141;28;20731;-62
2022/08/28 06:30:52;;;;;;;11.97;6.70;;;16.20;99.90;;;;;;5068187;28;20213;-62
2022/08/28 06:33:20;;;;;;;11.93;6.37;;;16.10;99.90;;;;;;5064526;28;20567;-62
2022/08/28 06:35:49;;;;;;;14.57;6.13;;;16.10;99.90;;;;;;5068130;28;20182;-63
2022/08/28 06:38:16;;;;;;;14.13;5.90;;;16.20;99.90;;;;;;5064201;28;20190;-63
2022/08/28 06:40:49;;;;;;;15.70;7.10;;;16.20;99.90;;;;;;5067806;28;20182;-63
2022/08/28 06:43:16;;;;;;;18.27;6.57;;;16.20;99.90;;;;;;5047891;28;20191;-62
2022/08/28 06:45:45;;;;;;;12.97;6.17;;;16.30;99.90;;;;;;5067770;28;20332;-63
2022/08/28 06:48:15;;;;;;;11.73;6.60;;;16.40;99.90;;;;;;5069016;28;20190;-61
2022/08/28 06:50:43;;;;;;;14.67;5.87;;;16.50;99.90;;;;;;5070946;28;20236;-62
2022/08/28 06:53:09;;;;;;;18.77;6.53;;;16.50;99.90;;;;;;5069158;28;20194;-62
2022/08/28 06:55:36;;;;;;;16.67;6.73;;;16.50;99.90;;;;;;5071319;28;20183;-62
2022/08/28 06:58:02;;;;;;;12.50;5.60;;;16.60;99.90;;;;;;5071320;28;20198;-62
2022/08/28 07:00:28;;;;;;;10.53;6.40;;;16.60;99.90;;;;;;5068988;28;20210;-64
2022/08/28 07:02:54;;;;;;;12.23;6.33;;;16.60;99.90;;;;;;5070900;28;20243;-63
2022/08/28 07:05:19;;;;;;;12.63;6.23;;;16.60;99.90;;;;;;5068070;28;20960;-63
2022/08/28 07:07:44;;;;;;;12.40;6.40;;;16.70;99.90;;;;;;5071051;28;20194;-63
2022/08/28 07:10:10;;;;;;;11.13;6.43;;;16.80;99.90;;;;;;5066617;28;20660;-63
2022/08/28 07:12:36;;;;;;;11.37;5.73;;;16.60;99.90;;;;;;5070981;28;20197;-63
2022/08/28 07:15:03;;;;;;;10.80;5.87;;;16.70;99.90;;;;;;5065103;28;20280;-61
2022/08/28 07:17:28;;;;;;;13.20;6.87;;;16.80;99.90;;;;;;5070945;28;20668;-62
2022/08/28 07:19:54;;;;;;;8.73;5.10;;;16.70;99.90;;;;;;5063502;28;20252;-62
2022/08/28 07:22:20;;;;;;;9.57;6.00;;;16.80;99.90;;;;;;5070811;28;20182;-61
2022/08/28 07:24:46;;;;;;;13.47;6.47;;;16.90;99.90;;;;;;5062446;28;20263;-62
2022/08/28 07:27:11;;;;;;;6.33;5.43;;;17.00;99.90;;;;;;5070653;28;20704;-64
2022/08/28 07:29:37;;;;;;;13.63;5.87;;;17.10;99.90;;;;;;5061044;28;20205;-61
2022/08/28 07:32:03;;;;;;;11.93;6.07;;;17.20;99.90;;;;;;5070616;28;20232;-62
2022/08/28 07:34:29;;;;;;;14.73;5.53;;;17.20;99.90;;;;;;5049831;28;20677;-62
2022/08/28 07:36:56;;;;;;;14.87;6.13;;;17.20;99.90;;;;;;5067107;28;20986;-63
2022/08/28 07:39:22;;;;;;;14.70;5.90;;;17.20;99.90;;;;;;5048958;28;20206;-64
2022/08/28 07:41:49;;;;;;;10.90;5.87;;;17.20;99.90;;;;;;5066834;28;20209;-64
2022/08/28 07:47:04;;;;;;;7.43;5.00;;;17.30;99.90;;;;;;5069950;28;20269;-64
2022/08/28 07:49:32;;;;;;;10.87;5.20;;;17.50;99.90;;;;;;5058922;28;20230;-64
2022/08/28 07:51:58;;;;;;;12.67;4.47;;;17.60;99.90;;;;;;5071910;28;20675;-64
2022/08/28 07:54:27;;;;;;;9.80;5.00;;;17.80;99.90;;;;;;5049771;28;20218;-64
2022/08/28 07:56:52;;;;;;;11.97;6.03;;;17.80;99.90;;;;;;5070557;28;20214;-64
2022/08/28 07:59:19;;;;;;;7.93;4.73;;;17.80;99.90;;;;;;5043668;28;20306;-64
2022/08/28 08:01:46;;;;;;;12.00;5.00;;;17.80;99.90;;;;;;5071504;28;20332;-64
2022/08/28 08:04:14;;;;;;;9.60;4.90;;;17.70;99.90;;;;;;5049488;28;20191;-64
2022/08/28 08:06:41;;;;;;;9.30;5.07;;;17.80;99.90;;;;;;5050761;28;20180;-64
2022/08/28 08:09:11;;;;;;;8.30;5.17;;;17.50;99.90;;;;;;5063432;28;20289;-64
2022/08/28 08:11:37;;;;;;;10.97;5.10;;;17.50;99.90;;;;;;5071137;28;20182;-65
2022/08/28 08:14:04;;;;;;;11.87;5.57;;;17.60;99.90;;;;;;5065604;28;20241;-65
2022/08/28 08:16:33;;;;;;;9.27;5.23;;;17.70;99.90;;;;;;5071097;28;20179;-63
2022/08/28 08:19:00;;;;;;;12.30;5.83;;;17.70;99.90;;;;;;5065477;28;20202;-63
2022/08/28 08:21:27;;;;;;;13.00;6.40;;;17.50;99.90;;;;;;5070269;28;20182;-64
2022/08/28 08:23:53;;;;;;;13.30;6.00;;;17.40;99.90;;;;;;5064604;28;20194;-63
2022/08/28 08:26:22;;;;;;;16.07;6.40;;;17.40;99.90;;;;;;5069691;28;20166;-63
2022/08/28 08:28:51;;;;;;;14.17;7.60;;;17.30;99.90;;;;;;5061277;28;20190;-63
2022/08/28 08:31:23;;;;;;;11.03;6.40;;;17.30;99.90;;;;;;5049254;28;20171;-63
2022/08/28 08:33:51;;;;;;;12.33;7.00;;;17.40;99.90;;;;;;5066621;28;20206;-63
2022/08/28 08:36:19;;;;;;;11.97;6.90;;;17.30;99.90;;;;;;5069137;28;20204;-64
2022/08/28 08:38:45;;;;;;;11.90;6.23;;;17.10;99.90;;;;;;5066575;28;20210;-63
2022/08/28 08:41:21;;;;;;;14.13;6.50;;;17.20;99.90;;;;;;5068923;28;20229;-62
2022/08/28 08:44:06;;;;;;;16.87;7.10;;;17.40;99.90;;;;;;5049572;28;20214;-70
2022/08/28 08:46:37;;;;;;;12.27;6.47;;;17.40;99.90;;;;;;5068982;28;20178;-63
2022/08/28 08:49:09;;;;;;;13.03;6.67;;;17.30;99.90;;;;;;5059452;28;21301;-63
2022/08/28 08:51:40;;;;;;;13.30;6.53;;;17.20;99.90;;;;;;5068018;28;20319;-63
2022/08/28 08:54:11;;;;;;;12.50;6.93;;;17.10;99.90;;;;;;5056384;28;20190;-64
2022/08/28 08:56:38;;;;;;;10.27;6.83;;;17.20;99.90;;;;;;5067276;28;20186;-64
2022/08/28 08:59:09;;;;;;;11.80;7.20;;;17.20;99.90;;;;;;5060729;28;20204;-63
2022/08/28 09:01:41;;;;;;;14.37;7.87;;;17.10;99.90;;;;;;5065207;28;20179;-63
2022/08/28 09:04:35;;;;;;;12.93;6.60;;;17.10;99.90;;;;;;5063614;28;20197;-64
2022/08/28 09:07:06;;;;;;;18.90;8.40;;;17.10;99.90;;;;;;5067719;28;20179;-63
2022/08/28 09:09:39;;;;;;;14.57;7.97;;;16.90;99.90;;;;;;5064349;28;20202;-63
2022/08/28 09:12:08;;;;;;;12.83;7.13;;;17.00;99.90;;;;;;5048558;28;20195;-61
2022/08/28 09:14:49;;;;;;;10.37;6.80;;;17.10;99.90;;;;;;5066297;28;20264;-62
2022/08/28 09:17:18;;;;;;;8.87;7.20;;;17.10;99.90;;;;;;5048599;28;20178;-65
2022/08/28 09:19:44;;;;;;;11.23;7.53;;;17.00;99.90;;;;;;5066116;28;20305;-66
2022/08/28 09:22:10;;;;;;;10.93;7.47;;;16.90;99.90;;;;;;5049166;28;20329;-66
2022/08/28 09:24:37;;;;;;;9.10;7.53;;;16.80;99.90;;;;;;5065657;28;20205;-66
2022/08/28 09:27:25;;;;;;;12.27;8.07;;;16.80;99.90;;;;;;5068158;28;20224;-66
2022/08/28 09:30:01;;;;;;;14.67;7.07;;;17.00;99.90;;;;;;5056388;28;20198;-64
2022/08/28 09:32:37;;;;;;;8.73;7.27;;;17.30;99.90;;;;;;5048280;28;20260;-65
2022/08/28 09:35:26;;;;;;;10.77;8.37;;;17.20;99.90;;;;;;5065180;28;20229;-67
2022/08/28 09:37:52;;;;;;;9.30;6.00;;;17.20;99.90;;;;;;5067050;28;20182;-66
2022/08/28 09:40:21;;;;;;;9.53;6.37;;;17.40;99.90;;;;;;5063374;28;20202;-66
2022/08/28 09:45:57;;;;;;;12.37;7.10;;;17.70;99.90;;;;;;5066008;28;20256;-76
2022/08/28 09:48:34;;;;;;;11.43;6.20;;;17.80;99.90;;;;;;5046719;28;20193;-75
2022/08/28 09:51:06;;;;;;;14.13;6.87;;;17.60;99.90;;;;;;5064835;28;20227;-75
2022/08/28 09:53:55;;;;;;;13.57;6.17;;;17.80;99.90;;;;;;5053200;28;20178;-63
2022/08/28 09:56:35;;;;;;;12.90;6.30;;;17.70;99.90;;;;;;5065040;28;20173;-64
2022/08/28 09:59:22;;;;;;;11.90;6.60;;;17.80;99.90;;;;;;5062246;28;20205;-64
2022/08/28 10:02:21;;;;;;;11.47;7.37;;;17.90;99.90;;;;;;5066154;28;20178;-65
2022/08/28 10:04:59;;;;;;;12.40;6.77;;;17.80;99.90;;;;;;5059060;28;20198;-66
2022/08/28 10:07:35;;;;;;;11.73;8.33;;;17.60;99.90;;;;;;5066330;28;20209;-65
2022/08/28 10:10:40;;;;;;;10.63;6.67;;;17.70;99.90;;;;;;5062617;28;20198;-65
2022/08/28 10:13:12;;;;;;;11.27;6.63;;;17.70;99.90;;;;;;5066478;28;20177;-65
2022/08/28 10:15:48;;;;;;;14.40;6.57;;;18.00;99.90;;;;;;5063146;28;20293;-65
2022/08/28 10:18:36;;;;;;;11.13;7.17;;;18.00;99.90;;;;;;5047570;28;20182;-65
2022/08/28 10:21:29;;;;;;;7.60;6.80;;;17.90;99.90;;;;;;5062338;28;20194;-65
2022/08/28 10:24:21;;;;;;;10.03;7.03;;;18.00;99.90;;;;;;5050949;28;20674;-65
2022/08/28 10:27:12;;;;;;;13.47;7.43;;;18.10;99.90;;;;;;5070511;28;20181;-64
2022/08/28 10:30:04;;;;;;;11.13;7.60;;;18.10;99.90;;;;;;5066857;28;20528;-64
2022/08/28 10:32:48;;;;;;;9.93;7.00;;;18.10;99.90;;;;;;5052105;28;20215;-66
2022/08/28 10:35:19;;;;;;;11.57;7.03;;;18.20;99.90;;;;;;5061229;28;20198;-68
2022/08/28 10:38:04;;;;;;;7.20;6.40;;;18.20;99.90;;;;;;5051457;28;20183;-66
2022/08/28 10:40:48;;;;;;;9.70;6.07;;;18.10;99.90;;;;;;5063253;28;20221;-66
2022/08/28 10:43:18;;;;;;;8.27;5.83;;;17.80;99.90;;;;;;5051746;28;20634;-66
2022/08/28 10:45:44;;;;;;;8.23;6.33;;;17.80;99.90;;;;;;5063792;28;20198;-65
2022/08/28 10:48:25;;;;;;;8.80;6.07;;;18.00;99.90;;;;;;5071159;28;20223;-65
2022/08/28 10:51:01;;;;;;;12.90;6.93;;;18.20;99.90;;;;;;5065753;28;20352;-64
2022/08/28 10:53:37;;;;;;;8.00;5.97;;;18.20;99.90;;;;;;5051477;28;20205;-65
2022/08/28 10:56:07;;;;;;;7.67;5.17;;;18.30;99.90;;;;;;5067132;28;20199;-65
2022/08/28 10:58:37;;;;;;;9.43;6.53;;;18.40;99.90;;;;;;5070875;28;20267;-65
2022/08/28 11:01:12;;;;;;;13.10;6.67;;;18.40;99.90;;;;;;5066017;28;20338;-64
2022/08/28 11:03:46;;;;;;;9.40;6.63;;;18.40;99.90;;;;;;5050328;28;20195;-64
2022/08/28 11:06:27;;;;;;;10.60;7.17;;;18.30;99.90;;;;;;5067347;28;20222;-64
2022/08/28 11:08:57;;;;;;;15.43;7.67;;;18.30;99.90;;;;;;5050229;28;20197;-64
2022/08/28 11:11:42;;;;;;;11.63;7.33;;;17.90;99.90;;;;;;5069287;28;20752;-62
2022/08/28 11:14:08;;;;;;;9.63;7.53;;;17.60;99.90;;;;;;5049703;28;20270;-63
2022/08/28 11:16:35;;;;;;;11.90;7.53;;;17.60;99.90;;;;;;5070279;28;20657;-64
2022/08/28 11:19:14;;;;;;;14.60;7.77;;;17.80;99.90;;;;;;5048191;28;20713;-64
2022/08/28 11:21:53;;;;;;;10.10;7.43;;;17.90;99.90;;;;;;5050245;28;20182;-62
2022/08/28 11:24:32;;;;;;;13.03;6.83;;;17.80;99.90;;;;;;5050882;28;20191;-62
2022/08/28 11:27:17;;;;;;;12.13;7.27;;;17.80;99.90;;;;;;5070126;28;20229;-62
2022/08/28 11:30:21;;;;;;;9.23;7.47;;;17.70;99.90;;;;;;5053900;28;20203;-62
2022/08/28 11:32:50;;;;;;;11.97;7.67;;;17.80;99.90;;;;;;5045522;28;20577;-65
2022/08/28 11:35:40;;;;;;;12.50;8.33;;;17.90;99.90;;;;;;5066855;28;20627;-65
2022/08/28 11:38:06;;;;;;;12.17;8.30;;;17.70;99.90;;;;;;5049828;28;20676;-65
2022/08/28 11:40:32;;;;;;;13.83;8.73;;;17.80;99.90;;;;;;5054951;28;20207;-63
2022/08/28 11:43:16;;;;;;;15.67;8.53;;;17.90;99.90;;;;;;5067575;28;20640;-64
2022/08/28 11:45:41;;;;;;;15.37;7.60;;;18.00;99.90;;;;;;5065446;28;20190;-64
2022/08/28 11:48:08;;;;;;;11.20;7.90;;;17.90;99.90;;;;;;5068349;28;20809;-64
2022/08/28 11:50:56;;;;;;;13.60;7.73;;;17.90;99.90;;;;;;5063574;28;20673;-65
2022/08/28 11:53:31;;;;;;;12.60;9.10;;;17.90;99.90;;;;;;5068414;28;20679;-65
2022/08/28 11:56:39;;;;;;;9.80;7.37;;;17.80;99.90;;;;;;5065050;28;20218;-65
2022/08/28 11:59:42;;;;;;;10.50;7.47;;;18.00;99.90;;;;;;5066398;28;20210;-65
2022/08/28 12:02:35;;;;;;;11.57;7.80;;;18.10;99.90;;;;;;5049346;28;20186;-65
2022/08/28 12:05:03;;;;;;;12.30;8.83;;;18.20;99.90;;;;;;5065455;28;20271;-65
2022/08/28 12:07:37;;;;;;;16.13;8.77;;;17.90;99.90;;;;;;5062895;28;20199;-66
2022/08/28 12:10:26;;;;;;;18.17;8.77;;;17.90;99.90;;;;;;5047711;28;20572;-65
2022/08/28 12:13:06;;;;;;;17.13;8.93;;;17.60;99.90;;;;;;5065271;28;20193;-64
2022/08/28 12:15:32;;;;;;;15.53;8.37;;;17.70;99.90;;;;;;5058479;28;20573;-64
2022/08/28 12:18:01;;;;;;;14.63;8.83;;;17.80;99.90;;;;;;5049675;28;20187;-64
2022/08/28 12:20:37;;;;;;;15.07;9.33;;;17.80;99.90;;;;;;5064127;28;20759;-64
2022/08/28 12:23:35;;;;;;;19.87;8.03;;;17.90;99.90;;;;;;5067498;28;20178;-65
2022/08/28 12:26:02;;;;;;;15.53;9.00;;;18.10;99.90;;;;;;5065002;28;20201;-64
2022/08/28 12:28:52;;;;;;;9.57;7.83;;;18.10;99.90;;;;;;5049536;28;20657;-84
2022/08/28 12:32:09;;;;;;;11.93;8.07;;;18.00;99.90;;;;;;5061320;28;20728;-63
2022/08/28 12:34:20;;;;;;;10.57;7.37;;;18.30;99.90;;;;;;5067647;28;20210;-65
2022/08/28 12:36:55;;;;;;;16.97;8.13;;;18.40;99.90;;;;;;5067954;28;20182;-64
2022/08/28 12:39:21;;;;;;;12.53;7.73;;;18.30;99.90;;;;;;5064963;28;20205;-64
2022/08/28 12:41:47;;;;;;;11.53;7.40;;;18.40;99.90;;;;;;5067959;28;20168;-64
2022/08/28 12:44:14;;;;;;;12.57;7.37;;;18.20;99.90;;;;;;5066298;28;20194;-65
2022/08/28 12:46:42;;;;;;;9.53;7.27;;;18.40;99.90;;;;;;5063445;28;20230;-64
2022/08/28 12:49:32;;;;;;;13.07;6.43;;;18.40;99.90;;;;;;5062485;28;20221;-66
2022/08/28 12:52:17;;;;;;;9.77;7.80;;;18.30;99.90;;;;;;5066064;28;20178;-63
2022/08/28 12:54:43;;;;;;;10.60;7.13;;;18.30;99.90;;;;;;5062998;28;20270;-63
2022/08/28 12:57:12;;;;;;;9.57;7.10;;;18.30;99.90;;;;;;5067201;28;20174;-63
2022/08/28 13:00:06;;;;;;;12.10;7.23;;;18.20;99.90;;;;;;5062019;28;20202;-64
2022/08/28 13:02:33;;;;;;;13.07;7.77;;;18.10;99.90;;;;;;5067540;28;20252;-64